createdAt,value
2022-10-19T00:01:06.155Z,14.18
2022-10-19T00:03:39.555Z,14.17
2022-10-19T00:06:16.832Z,14.17
2022-10-19T00:08:48.855Z,14.15
2022-10-19T00:11:21.538Z,14.14
2022-10-19T00:13:58.910Z,14.09
2022-10-19T00:16:33.277Z,14.05
2022-10-19T00:19:08.228Z,14.03
2022-10-19T00:21:40.471Z,14.02
2022-10-19T00:24:12.679Z,14.01
2022-10-19T00:26:44.693Z,13.98
2022-10-19T00:29:17.432Z,13.96
2022-10-19T00:31:52.228Z,13.97
2022-10-19T00:34:24.254Z,13.95
2022-10-19T00:36:56.269Z,13.91
2022-10-19T00:39:28.357Z,13.91
2022-10-19T00:42:00.347Z,13.91
2022-10-19T00:45:04.357Z,13.90
2022-10-19T00:47:36.845Z,13.88
2022-10-19T00:50:10.544Z,13.86
2022-10-19T00:52:42.928Z,13.82
2022-10-19T00:55:15.187Z,13.81
2022-10-19T00:57:47.611Z,13.82
2022-10-19T01:00:20.456Z,13.80
2022-10-19T01:02:52.527Z,13.79
2022-10-19T01:05:25.091Z,13.80
2022-10-19T01:07:57.181Z,13.75
2022-10-19T01:10:37.960Z,13.67
2022-10-19T01:13:22.956Z,13.61
2022-10-19T01:16:00.898Z,13.56
2022-10-19T01:18:44.325Z,13.54
2022-10-19T01:21:30.033Z,13.52
2022-10-19T01:24:45.582Z,13.52
2022-10-19T01:27:41.086Z,13.56
2022-10-19T01:30:18.058Z,13.57
2022-10-19T01:33:03.603Z,13.59
2022-10-19T01:35:46.492Z,13.58
2022-10-19T01:38:28.431Z,13.58
2022-10-19T01:41:09.718Z,13.60
2022-10-19T01:43:48.549Z,13.59
2022-10-19T01:46:24.099Z,13.55
2022-10-19T01:49:01.190Z,13.49
2022-10-19T01:51:36.927Z,13.46
2022-10-19T01:54:14.243Z,13.45
2022-10-19T01:56:49.441Z,13.47
2022-10-19T01:59:23.726Z,13.47
2022-10-19T02:01:57.075Z,13.49
2022-10-19T02:04:32.208Z,13.52
2022-10-19T02:07:06.325Z,13.55
2022-10-19T02:09:38.432Z,13.58
2022-10-19T02:12:12.363Z,13.60
2022-10-19T02:14:48.618Z,13.61
2022-10-19T02:17:26.029Z,13.63
2022-10-19T02:19:59.025Z,13.61
2022-10-19T02:22:31.441Z,13.60
2022-10-19T02:25:03.719Z,13.63
2022-10-19T02:27:36.786Z,13.64
2022-10-19T02:30:12.441Z,13.66
2022-10-19T02:32:44.894Z,13.66
2022-10-19T02:35:20.330Z,13.64
2022-10-19T02:37:52.717Z,13.64
2022-10-19T02:40:25.101Z,13.65
2022-10-19T02:43:01.877Z,13.62
2022-10-19T02:45:38.427Z,13.62
2022-10-19T02:48:15.345Z,13.61
2022-10-19T02:50:48.784Z,13.54
2022-10-19T02:53:21.213Z,13.47
2022-10-19T02:55:53.666Z,13.39
2022-10-19T02:58:25.996Z,13.32
2022-10-19T03:00:58.015Z,13.26
2022-10-19T03:03:30.395Z,13.21
2022-10-19T03:06:02.356Z,13.15
2022-10-19T03:08:34.687Z,13.11
2022-10-19T03:11:08.147Z,13.06
2022-10-19T03:13:40.102Z,12.99
2022-10-19T03:16:14.453Z,12.92
2022-10-19T03:18:46.329Z,12.82
2022-10-19T03:21:18.887Z,12.71
2022-10-19T03:23:50.795Z,12.64
2022-10-19T03:26:22.712Z,12.61
2022-10-19T03:28:54.730Z,12.54
2022-10-19T03:31:27.273Z,12.51
2022-10-19T03:33:59.321Z,12.48
2022-10-19T03:36:33.554Z,12.48
2022-10-19T03:39:08.275Z,12.45
2022-10-19T03:41:41.055Z,12.39
2022-10-19T03:44:13.916Z,12.35
2022-10-19T03:46:46.401Z,12.34
2022-10-19T03:49:18.520Z,12.33
2022-10-19T03:51:50.981Z,12.31
2022-10-19T03:54:26.495Z,12.31
2022-10-19T03:56:59.633Z,12.27
2022-10-19T03:59:31.822Z,12.23
2022-10-19T04:02:05.602Z,12.16
2022-10-19T04:04:38.126Z,12.08
2022-10-19T04:07:10.127Z,12.01
2022-10-19T04:09:48.761Z,11.98
2022-10-19T04:12:20.836Z,11.97
2022-10-19T04:14:57.221Z,11.92
2022-10-19T04:17:29.942Z,11.81
2022-10-19T04:20:01.980Z,11.78
2022-10-19T04:22:34.074Z,11.74
2022-10-19T04:25:07.343Z,11.71
2022-10-19T04:27:39.417Z,11.69
2022-10-19T04:30:13.720Z,11.68
2022-10-19T04:32:45.773Z,11.69
2022-10-19T04:35:21.190Z,11.67
2022-10-19T04:37:53.179Z,11.62
2022-10-19T04:40:25.181Z,11.58
2022-10-19T04:42:57.088Z,11.56
2022-10-19T04:45:29.432Z,11.57
2022-10-19T04:48:03.490Z,11.58
2022-10-19T04:50:35.382Z,11.58
2022-10-19T04:53:07.853Z,11.56
2022-10-19T04:55:44.116Z,11.54
2022-10-19T04:58:16.176Z,11.51
2022-10-19T05:00:48.243Z,11.48
2022-10-19T05:03:20.545Z,11.45
2022-10-19T05:05:57.433Z,11.45
2022-10-19T05:08:29.412Z,11.44
2022-10-19T05:11:05.788Z,11.42
2022-10-19T05:13:38.534Z,11.40
2022-10-19T05:16:13.649Z,11.41
2022-10-19T05:18:47.706Z,11.42
2022-10-19T05:21:21.906Z,11.44
2022-10-19T05:23:56.197Z,11.46
2022-10-19T05:26:30.904Z,11.48
2022-10-19T05:29:04.637Z,11.51
2022-10-19T05:31:37.420Z,11.53
2022-10-19T05:34:09.608Z,11.54
2022-10-19T05:36:42.153Z,11.56
2022-10-19T05:39:16.391Z,11.58
2022-10-19T05:41:49.403Z,11.58
2022-10-19T05:44:24.116Z,11.58
2022-10-19T05:46:59.155Z,11.60
2022-10-19T05:49:31.474Z,11.62
2022-10-19T05:52:03.638Z,11.66
2022-10-19T05:54:36.177Z,11.68
2022-10-19T05:57:08.214Z,11.71
2022-10-19T05:59:40.876Z,11.75
2022-10-19T06:02:15.632Z,11.78
2022-10-19T06:04:47.740Z,11.80
2022-10-19T06:07:21.289Z,11.83
2022-10-19T06:09:53.317Z,11.87
2022-10-19T06:12:25.528Z,11.90
2022-10-19T06:14:57.489Z,11.90
2022-10-19T06:17:31.662Z,11.88
2022-10-19T06:20:04.262Z,11.90
2022-10-19T06:22:36.153Z,11.95
2022-10-19T06:25:09.524Z,12.01
2022-10-19T06:27:41.826Z,12.04
2022-10-19T06:30:14.655Z,12.08
2022-10-19T06:32:46.889Z,12.09
2022-10-19T06:35:19.408Z,12.08
2022-10-19T06:37:51.415Z,12.06
2022-10-19T06:40:23.451Z,12.05
2022-10-19T06:42:58.636Z,12.08
2022-10-19T06:45:35.602Z,12.09
2022-10-19T06:48:08.538Z,12.11
2022-10-19T06:50:40.545Z,12.14
2022-10-19T06:53:13.067Z,12.16
2022-10-19T06:56:00.413Z,12.15
2022-10-19T06:58:35.664Z,12.15
2022-10-19T07:01:09.567Z,12.14
2022-10-19T07:03:45.122Z,12.14
2022-10-19T07:06:17.240Z,12.17
2022-10-19T07:08:50.778Z,12.20
2022-10-19T07:11:23.822Z,12.21
2022-10-19T07:13:56.145Z,12.23
2022-10-19T07:16:28.123Z,12.25
2022-10-19T07:19:01.778Z,12.27
2022-10-19T07:21:34.020Z,12.30
2022-10-19T07:24:06.441Z,12.29
2022-10-19T07:26:38.603Z,12.29
2022-10-19T07:29:11.029Z,12.29
2022-10-19T07:31:43.085Z,12.31
2022-10-19T07:34:16.548Z,12.34
2022-10-19T07:36:49.076Z,12.35
2022-10-19T07:39:21.297Z,12.37
2022-10-19T07:41:53.393Z,12.40
2022-10-19T07:44:25.593Z,12.41
2022-10-19T07:46:58.100Z,12.42
2022-10-19T07:49:33.044Z,12.48
2022-10-19T07:52:05.873Z,12.52
2022-10-19T07:54:37.961Z,12.57
2022-10-19T07:57:12.147Z,12.66
2022-10-19T07:59:44.559Z,12.70
2022-10-19T08:02:18.706Z,12.70
2022-10-19T08:05:03.205Z,12.67
2022-10-19T08:07:38.899Z,12.67
2022-10-19T08:10:15.062Z,12.65
2022-10-19T08:12:47.041Z,12.57
2022-10-19T08:15:19.311Z,12.49
2022-10-19T08:17:51.421Z,12.46
2022-10-19T08:20:23.816Z,12.49
2022-10-19T08:22:58.833Z,12.48
2022-10-19T08:25:31.151Z,12.47
2022-10-19T08:28:03.320Z,12.54
2022-10-19T08:30:37.326Z,12.60
2022-10-19T08:33:12.565Z,12.66
2022-10-19T08:35:44.619Z,12.73
2022-10-19T08:38:16.611Z,12.81
2022-10-19T08:40:49.160Z,12.89
2022-10-19T08:43:31.221Z,12.95
2022-10-19T08:46:12.790Z,13.01
2022-10-19T08:52:05.139Z,13.02
2022-10-19T08:54:42.970Z,12.94
2022-10-19T08:57:26.325Z,12.97
2022-10-19T09:00:07.637Z,12.96
2022-10-19T09:02:55.070Z,12.92
2022-10-19T09:05:38.933Z,12.86
2022-10-19T09:08:17.556Z,12.79
2022-10-19T09:10:53.629Z,12.75
2022-10-19T09:13:41.763Z,12.74
2022-10-19T09:16:30.680Z,12.74
2022-10-19T09:19:03.001Z,12.72
2022-10-19T09:21:47.381Z,12.69
2022-10-19T09:24:31.410Z,12.71
2022-10-19T09:27:04.988Z,12.72
2022-10-19T09:29:43.531Z,12.75
2022-10-19T09:32:20.497Z,12.82
2022-10-19T09:34:55.391Z,12.87
2022-10-19T09:37:27.806Z,12.87
2022-10-19T09:39:59.810Z,12.88
2022-10-19T09:42:34.688Z,12.92
2022-10-19T09:45:18.708Z,13.00
2022-10-19T09:47:51.572Z,13.11
2022-10-19T09:50:25.318Z,13.27
2022-10-19T09:53:04.919Z,13.43
2022-10-19T09:55:40.580Z,13.52
2022-10-19T09:58:20.247Z,13.80
2022-10-19T10:00:55.081Z,14.07
2022-10-19T10:03:35.292Z,14.11
2022-10-19T10:06:09.455Z,14.11
2022-10-19T10:08:47.398Z,14.02
2022-10-19T10:11:28.118Z,13.99
2022-10-19T10:14:09.140Z,13.96
2022-10-19T10:16:42.102Z,13.95
2022-10-19T10:19:17.382Z,13.95
2022-10-19T10:21:55.862Z,14.00
2022-10-19T10:24:32.427Z,14.15
2022-10-19T10:27:07.274Z,14.17
2022-10-19T10:29:40.192Z,13.99
2022-10-19T10:32:19.551Z,13.81
2022-10-19T10:35:01.635Z,13.67
2022-10-19T10:37:40.397Z,13.59
2022-10-19T10:40:24.123Z,13.54
2022-10-19T10:42:59.302Z,13.53
2022-10-19T10:45:35.122Z,13.56
2022-10-19T10:48:44.025Z,13.55
2022-10-19T10:51:25.207Z,13.44
2022-10-19T10:54:09.631Z,13.28
2022-10-19T10:56:40.641Z,13.16
2022-10-19T10:59:18.880Z,13.09
2022-10-19T11:01:59.679Z,13.13
2022-10-19T11:04:31.946Z,13.31
2022-10-19T11:07:18.806Z,13.57
2022-10-19T11:09:53.334Z,13.75
2022-10-19T11:12:35.241Z,13.74
2022-10-19T11:15:12.153Z,13.62
2022-10-19T11:17:48.043Z,13.50
2022-10-19T11:20:17.361Z,13.34
2022-10-19T11:22:50.938Z,13.18
2022-10-19T11:25:36.420Z,13.02
2022-10-19T11:28:22.100Z,12.95
2022-10-19T11:31:00.982Z,13.03
2022-10-19T11:33:48.178Z,13.21
2022-10-19T11:36:37.680Z,13.43
2022-10-19T11:39:21.005Z,13.64
2022-10-19T11:42:00.648Z,13.76
2022-10-19T11:44:39.733Z,13.99
2022-10-19T11:47:21.249Z,14.23
2022-10-19T11:49:59.976Z,14.46
2022-10-19T11:52:39.445Z,14.77
2022-10-19T11:55:23.160Z,15.36
2022-10-19T11:57:59.292Z,15.65
2022-10-19T12:00:39.135Z,15.70
2022-10-19T12:03:17.098Z,15.57
2022-10-19T12:06:01.278Z,15.29
2022-10-19T12:08:45.897Z,14.87
2022-10-19T12:11:28.003Z,14.62
2022-10-19T12:14:00.607Z,14.47
2022-10-19T12:16:36.920Z,14.31
2022-10-19T12:19:09.366Z,14.24
2022-10-19T12:21:42.488Z,14.25
2022-10-19T12:24:17.892Z,14.25
2022-10-19T12:26:48.262Z,14.19
2022-10-19T12:29:22.881Z,14.10
2022-10-19T12:31:53.244Z,14.06
2022-10-19T12:34:36.695Z,14.00
2022-10-19T12:37:12.408Z,13.87
2022-10-19T12:39:49.266Z,13.83
2022-10-19T12:42:24.505Z,13.86
2022-10-19T12:45:09.984Z,13.85
2022-10-19T12:47:38.464Z,13.90
2022-10-19T12:50:08.045Z,14.03
2022-10-19T12:52:40.959Z,14.21
2022-10-19T12:55:26.382Z,14.30
2022-10-19T12:58:02.006Z,14.26
2022-10-19T13:00:33.799Z,14.18
2022-10-19T13:03:06.945Z,14.04
2022-10-19T13:05:36.353Z,13.91
2022-10-19T13:08:09.279Z,13.82
2022-10-19T13:10:40.818Z,13.67
2022-10-19T13:13:51.892Z,13.47
2022-10-19T13:16:55.194Z,13.17
2022-10-19T13:19:24.374Z,13.05
2022-10-19T13:22:24.499Z,13.03
2022-10-19T13:25:23.666Z,13.01
2022-10-19T13:27:53.907Z,13.10
2022-10-19T13:31:04.882Z,13.15
2022-10-19T13:33:51.132Z,13.31
2022-10-19T13:36:21.656Z,13.44
2022-10-19T13:39:03.149Z,13.44
2022-10-19T13:41:53.253Z,13.36
2022-10-19T13:44:33.181Z,13.24
2022-10-19T13:47:30.679Z,13.14
2022-10-19T13:50:25.747Z,13.02
2022-10-19T13:53:18.306Z,12.92
2022-10-19T13:56:20.700Z,12.84
2022-10-19T13:59:30.133Z,12.83
2022-10-19T14:02:30.579Z,12.85
2022-10-19T14:05:14.418Z,12.82
2022-10-19T14:07:50.497Z,12.74
2022-10-19T14:10:25.097Z,12.74
2022-10-19T14:13:03.029Z,12.82
2022-10-19T14:15:33.489Z,12.83
2022-10-19T14:18:03.748Z,12.92
2022-10-19T14:20:36.200Z,13.04
2022-10-19T14:23:20.182Z,13.09
2022-10-19T14:25:54.567Z,13.12
2022-10-19T14:28:24.704Z,13.19
2022-10-19T14:30:58.923Z,13.13
2022-10-19T14:33:28.955Z,13.01
2022-10-19T14:35:57.756Z,12.90
2022-10-19T14:38:31.639Z,12.74
2022-10-19T14:41:00.311Z,12.63
2022-10-19T14:43:33.136Z,12.56
2022-10-19T14:46:14.639Z,12.52
2022-10-19T14:48:45.102Z,12.48
2022-10-19T14:51:28.956Z,12.46
2022-10-19T14:54:03.669Z,12.39
2022-10-19T14:56:35.989Z,12.33
2022-10-19T14:59:15.205Z,12.30
2022-10-19T15:01:50.137Z,12.28
2022-10-19T15:04:20.765Z,12.25
2022-10-19T15:06:49.910Z,12.25
2022-10-19T15:09:37.010Z,12.25
2022-10-19T15:12:17.772Z,12.18
2022-10-19T15:14:47.393Z,12.11
2022-10-19T15:17:26.378Z,12.07
2022-10-19T15:19:57.871Z,12.05
2022-10-19T15:22:40.284Z,12.01
2022-10-19T15:25:34.751Z,11.99
2022-10-19T15:28:34.979Z,11.98
2022-10-19T15:31:12.880Z,11.92
2022-10-19T15:33:46.280Z,11.88
2022-10-19T15:36:16.900Z,11.87
2022-10-19T15:38:49.351Z,11.86
2022-10-19T15:41:28.110Z,11.82
2022-10-19T15:43:59.149Z,11.82
2022-10-19T15:46:31.329Z,11.80
2022-10-19T15:49:04.186Z,11.78
2022-10-19T15:51:42.620Z,11.76
2022-10-19T15:54:15.123Z,11.77
2022-10-19T15:56:47.933Z,11.76
2022-10-19T15:59:19.189Z,11.75
2022-10-19T16:01:53.726Z,11.72
2022-10-19T16:04:24.707Z,11.70
2022-10-19T16:06:53.212Z,11.67
2022-10-19T16:09:22.777Z,11.66
2022-10-19T16:11:56.003Z,11.64
2022-10-19T16:14:25.717Z,11.67
2022-10-19T16:16:55.633Z,11.64
2022-10-19T16:19:24.269Z,11.62
2022-10-19T16:21:53.261Z,11.61
2022-10-19T16:24:22.129Z,11.63
2022-10-19T16:26:50.719Z,11.62
2022-10-19T16:29:19.330Z,11.60
2022-10-19T16:31:48.537Z,11.59
2022-10-19T16:34:17.036Z,11.56
2022-10-19T16:36:46.032Z,11.51
2022-10-19T16:39:14.505Z,11.51
2022-10-19T16:41:44.386Z,11.53
2022-10-19T16:44:13.137Z,11.52
2022-10-19T16:46:42.109Z,11.43
2022-10-19T16:49:10.685Z,11.34
2022-10-19T16:51:40.571Z,11.31
2022-10-19T16:54:11.313Z,11.29
2022-10-19T16:56:45.022Z,11.31
2022-10-19T16:59:16.143Z,11.28
2022-10-19T17:01:48.652Z,11.25
2022-10-19T17:04:17.616Z,11.24
2022-10-19T17:06:49.070Z,11.22
2022-10-19T17:12:06.837Z,11.19
2022-10-19T17:14:36.032Z,11.17
2022-10-19T17:17:06.323Z,11.14
2022-10-19T17:19:38.689Z,11.14
2022-10-19T17:22:07.305Z,11.12
2022-10-19T17:24:36.862Z,11.10
2022-10-19T17:27:05.712Z,11.08
2022-10-19T17:29:34.395Z,11.07
2022-10-19T17:32:02.900Z,11.08
2022-10-19T17:34:31.557Z,11.05
2022-10-19T17:37:04.718Z,11.05
2022-10-19T17:39:33.785Z,11.06
2022-10-19T17:42:04.279Z,11.05
2022-10-19T17:44:32.972Z,11.05
2022-10-19T17:47:01.765Z,11.02
2022-10-19T17:49:30.542Z,11.01
2022-10-19T17:51:59.223Z,11.03
2022-10-19T17:54:27.885Z,11.01
2022-10-19T17:56:56.548Z,10.95
2022-10-19T17:59:34.731Z,10.93
2022-10-19T18:02:06.808Z,10.87
2022-10-19T18:07:10.586Z,10.71
2022-10-19T18:09:39.264Z,10.66
2022-10-19T18:12:12.586Z,10.61
2022-10-19T18:14:41.248Z,10.55
2022-10-19T18:17:10.040Z,10.48
2022-10-19T18:19:38.713Z,10.45
2022-10-19T18:22:07.381Z,10.40
2022-10-19T18:24:35.952Z,10.36
2022-10-19T18:27:04.554Z,10.31
2022-10-19T18:29:33.305Z,10.27
2022-10-19T18:32:02.012Z,10.24
2022-10-19T18:34:30.694Z,10.25
2022-10-19T18:36:59.265Z,10.24
2022-10-19T18:39:28.086Z,10.22
2022-10-19T18:41:56.703Z,10.20
2022-10-19T18:44:27.919Z,10.16
2022-10-19T18:46:57.831Z,10.09
2022-10-19T18:49:26.877Z,10.03
2022-10-19T18:51:56.078Z,10.01
2022-10-19T18:54:27.254Z,9.98
2022-10-19T18:56:55.959Z,9.92
2022-10-19T18:59:24.566Z,9.87
2022-10-19T19:01:53.964Z,9.84
2022-10-19T19:04:22.615Z,9.81
2022-10-19T19:06:52.594Z,9.77
2022-10-19T19:09:22.855Z,9.75
2022-10-19T19:11:53.523Z,9.74
2022-10-19T19:14:22.299Z,9.72
2022-10-19T19:16:54.076Z,9.71
2022-10-19T19:19:24.658Z,9.67
2022-10-19T19:21:53.224Z,9.62
2022-10-19T19:24:22.584Z,9.56
2022-10-19T19:26:53.233Z,9.47
2022-10-19T19:29:23.582Z,9.41
2022-10-19T19:31:53.302Z,9.36
2022-10-19T19:34:22.360Z,9.30
2022-10-19T19:36:51.117Z,9.27
2022-10-19T19:39:21.064Z,9.24
2022-10-19T19:41:50.522Z,9.21
2022-10-19T19:44:19.973Z,9.17
2022-10-19T19:46:48.559Z,9.11
2022-10-19T19:49:17.202Z,9.07
2022-10-19T19:51:45.752Z,9.02
2022-10-19T19:54:14.716Z,8.98
2022-10-19T19:56:43.278Z,8.93
2022-10-19T19:59:13.116Z,8.89
2022-10-19T20:01:42.353Z,8.86
2022-10-19T20:04:11.529Z,8.79
2022-10-19T20:06:40.602Z,8.72
2022-10-19T20:09:10.139Z,8.66
2022-10-19T20:11:42.311Z,8.59
2022-10-19T20:14:12.457Z,8.54
2022-10-19T20:16:41.564Z,8.48
2022-10-19T20:19:12.531Z,8.43
2022-10-19T20:21:42.424Z,8.39
2022-10-19T20:24:11.416Z,8.34
2022-10-19T20:26:40.002Z,8.29
2022-10-19T20:29:08.729Z,8.24
2022-10-19T20:31:40.144Z,8.20
2022-10-19T20:34:12.903Z,8.13
2022-10-19T20:36:41.878Z,8.05
2022-10-19T20:39:10.704Z,8.01
2022-10-19T20:41:39.457Z,7.97
2022-10-19T20:44:07.996Z,7.93
2022-10-19T20:46:36.762Z,7.92
2022-10-19T20:49:06.704Z,7.91
2022-10-19T20:51:36.450Z,7.86
2022-10-19T20:54:07.450Z,7.79
2022-10-19T20:56:37.806Z,7.72
2022-10-19T20:59:08.072Z,7.67
2022-10-19T21:01:38.589Z,7.61
2022-10-19T21:04:06.995Z,7.56
2022-10-19T21:06:39.067Z,7.52
2022-10-19T21:09:12.910Z,7.46
2022-10-19T21:11:43.129Z,7.37
2022-10-19T21:14:14.707Z,7.28
2022-10-19T21:16:44.365Z,7.22
2022-10-19T21:19:15.133Z,7.14
2022-10-19T21:21:46.692Z,7.07
2022-10-19T21:24:17.065Z,7.01
2022-10-19T21:26:45.998Z,6.98
2022-10-19T21:29:16.625Z,6.96
2022-10-19T21:31:48.658Z,6.91
2022-10-19T21:34:20.117Z,6.83
2022-10-19T21:36:51.117Z,6.77
2022-10-19T21:39:20.599Z,6.71
2022-10-19T21:41:52.068Z,6.64
2022-10-19T21:44:22.460Z,6.59
2022-10-19T21:46:51.171Z,6.54
2022-10-19T21:49:19.946Z,6.49
2022-10-19T21:51:51.094Z,6.47
2022-10-19T21:54:25.064Z,6.45
2022-10-19T21:56:56.014Z,6.40
2022-10-19T21:59:25.273Z,6.35
2022-10-19T22:01:55.598Z,6.29
2022-10-19T22:04:24.321Z,6.21
2022-10-19T22:06:53.026Z,6.14
2022-10-19T23:23:47.603Z,4.81
2022-10-19T23:26:18.559Z,4.76
2022-10-19T23:28:49.543Z,4.73
2022-10-19T23:31:20.137Z,4.72
2022-10-19T23:33:51.223Z,4.69
2022-10-19T23:36:22.572Z,4.65
2022-10-19T23:38:52.639Z,4.61
2022-10-19T23:41:22.054Z,4.56
2022-10-19T23:43:50.681Z,4.52
2022-10-19T23:46:19.257Z,4.51
2022-10-19T23:48:48.194Z,4.48
2022-10-19T23:51:18.645Z,4.43
2022-10-19T23:53:49.190Z,4.38
2022-10-19T23:56:18.318Z,4.33
2022-10-19T23:58:47.096Z,4.28
